Terminal Aerodrome Forecast
Issued by NWS

Home | Current Version | Previous Version | Text Only | Print | Product List | Glossary Off
Versions: 1 2 3 4 5 6 7 8 9 10 11 12 13 14 15

000
FTUS43 KICT 260520
TAFCNU
TAF
KCNU 260520Z 2606/2706 34015G25KT P6SM VCTS SCT015 OVC025CB
      TEMPO 2606/2608 6SM -TSRA OVC015CB
     FM260800 33013G21KT P6SM VCSH OVC009
     FM261400 34015G23KT P6SM VCSH OVC015
     FM261700 33014G23KT P6SM OVC025
     FM262200 33013KT P6SM SCT035 BKN150=

USA.gov is the U.S. government's official web portal to all federal, state and local government web resources and services.